Tiempo atmosférico en la estación meteorológica de Girona, Girona (79 m.)



Fecha
DESCASC
Temp. máxima en grados centígrados (hora)
DESCASC
Temp. mínima en grados centígrados (hora)
DESCASC
Temp. media en grados centígrados
DESCASC
Racha de viento máxima en m/sg (hora)
DESCASC
Velocidad máxima media en intervalos de 10 minutos(hora)
DESCASC
Precipitaciones diarias en mm
DESCASC
Precipitaciones de 00:00 a 06:00 en mm
DESCASC
Precipitaciones de 06:00 a 12:00 en mm
DESCASC
Precipitaciones de 12:00 a 18:00 en mm
DESCASC
Precipitaciones de 18:00 a 24:00 en mm
DESCASC
06-07-2020 32.4 (16:50) 18 (06:40) 25.2 6.11 (13:50) 3.06 (13:50) 0 0 0 0 0
05-07-2020 33.7 (16:40) 17.5 (06:30) 25.6 5.56 (16:00) 2.5 (18:10) 0 0 0 0 0
04-07-2020 30.4 (16:30) 18.7 (07:30) 24.6 6.67 (16:50) 3.33 (17:50) 0 0 0 0 0
03-07-2020 24.9 (15:30) 17 (05:50) 20.9 5 (11:00) 2.22 (18:20) 6.8 6.2 0.6 0 0
02-07-2020 31.4 (12:30) 19.4 (00:00) 25.4 8.61 (18:20) 3.89 (18:20) 11 0 0 6.2 4.8
01-07-2020 34.3 (14:50) 21.3 (00:00) 27.8 7.78 (14:30) 3.61 (15:00) 0 0 0 0 0
30-06-2020 29.3 (16:40) 21.6 (00:00) 25.4 8.89 (16:10) 3.89 (17:30) 0 0 0 0 0
29-06-2020 30.4 (15:40) 20.2 (00:00) 25.3 7.22 (14:40) 3.61 (14:40) 0 0 0 0 0
28-06-2020 32.3 (14:00) 20.2 (00:00) 26.3 7.5 (15:50) 3.33 (15:10) 0 0 0 0 0
27-06-2020 31.1 (14:50) 19.5 (00:00) 25.3 7.22 (12:50) 3.61 (15:30) 0 0 0 0 0
26-06-2020 31.9 (15:30) 19 (00:00) 25.4 10 (17:10) 4.44 (16:40) 0 0 0 0 0
25-06-2020 32 (17:00) 18.7 (00:00) 25.4 6.11 (15:20) 2.78 (15:00) 0 0 0 0 0
24-06-2020 31 (15:20) 19.5 (00:00) 25.3 10.83 (18:00) 4.17 (17:10) 0 0 0 0 0
23-06-2020 30.6 (14:20) 20.6 (00:00) 25.6 7.78 (15:20) 3.89 (14:40) 0 0 0 0 0
22-06-2020 30.4 (15:10) 16.9 (00:00) 23.6 6.67 (17:00) 3.61 (15:20) 0 0 0 0 0
21-06-2020 31 (16:20) 16.6 (00:00) 23.8 6.67 (19:00) 2.78 (18:50) 0 0 0 0 0
20-06-2020 28.1 (13:30) 15.5 (00:00) 21.8 6.67 (14:10) 3.33 (14:50) 0.4 0 0 0 0.4
19-06-2020 25.8 (15:00) 14.5 (00:00) 20.1 7.5 (15:40) 3.61 (16:10) 0.2 0 0 0.2 0
18-06-2020 22.7 (15:30) 13.4 (00:00) 18.1 5.28 (12:00) 2.5 (18:30) 5.6 0 5.2 0 0.4
17-06-2020 21.7 (13:50) 13.7 (00:00) 17.7 7.22 (16:20) 3.61 (16:30) 7.2 0 0 1.6 5.6
16-06-2020 21.2 (18:30) 16.2 (00:00) 18.7 4.72 (20:30) 2.22 (20:40) 5 0 1.8 2.8 0.4
15-06-2020 27.5 (14:20) 14.9 (00:00) 21.2 6.39 (15:10) 3.06 (11:20) 0 0 0 0 0
14-06-2020 26.2 (13:30) 13.1 (00:00) 19.7 7.5 (15:20) 3.61 (15:40) 1.8 0 0 0 1.8
13-06-2020 27.5 (14:30) 13.1 (00:00) 20.3 10.56 (15:20) 5.28 (15:20) 0.8 0 0.8 0 0
12-06-2020 27.3 (15:20) 17.4 (00:00) 22.3 10.83 (17:10) 5 (14:20) 0 0 0 0 0
11-06-2020 24.2 (14:50) 13.2 (00:00) 18.7 8.89 (16:10) 3.89 (16:00) 0.8 0.8 0 0 0
10-06-2020 24 (13:30) 11.1 (00:00) 17.6 7.22 (15:20) 2.78 (14:10) 11.6 0 0 10.6 1

Gráficas

Temp. máximas Temp. mínimas Temp. medias Precipitaciones Rachas de viento máximas Velocidades máximas media en intervalos de 10 minutos

Datos horarios

Fecha y hora oficial Temperatura (ºC) Velocidad del viento (km/h) Dirección del viento Racha (km/h) Dirección de racha Precipitación (mm) Presión (hPa) Tendencia (hPa) Humedad (%)
2020-07-09 23:00:00 24.7 0 Calma 7 Noroeste 0 -- -- 56
2020-07-09 22:00:00 25.5 0 Calma 10 Sur 0 -- -- 53
2020-07-09 21:00:00 27 5 Sudeste 13 Sudoeste 0 -- -- 47
2020-07-09 20:00:00 28.7 8 Sur 19 Sur 0 -- -- 43
2020-07-09 19:00:00 29.7 9 Sur 24 Sudoeste 0 -- -- 44
2020-07-09 18:00:00 33.1 12 Sur 26 Sur 0 -- -- 34
2020-07-09 17:00:00 34.7 7 Sur 17 Sur 0 -- -- 40
2020-07-09 16:00:00 34.4 7 Sur 20 Sur 0 -- -- 42
2020-07-09 15:00:00 35.2 6 Sur 14 Sur 0 -- -- 33
2020-07-09 14:00:00 34.4 7 Sudoeste 14 Sudoeste 0 -- -- 31
2020-07-09 13:00:00 32.4 4 Sur 10 Sur 0 -- -- 36
2020-07-09 12:00:00 30.6 4 Sur 12 Sudoeste 0 -- -- 44
2020-07-09 11:00:00 28.7 4 Sur 9 Sur 0 -- -- 52
2020-07-09 10:00:00 25.6 2 Sudeste 8 Sudoeste 0 -- -- 61
2020-07-09 09:00:00 22.5 0 Calma 4 Noroeste 0 -- -- 71
2020-07-09 08:00:00 20.2 2 Nordeste 5 Nordeste 0 -- -- 78
2020-07-09 07:00:00 19.6 0 Calma 4 Este 0 -- -- 82
2020-07-09 06:00:00 19.9 3 Sudeste 7 Este 0 -- -- 78
2020-07-09 05:00:00 20.2 0 Calma 6 Este 0 -- -- 79
2020-07-09 04:00:00 20.8 2 Sur 10 Sudoeste 0 -- -- 75
2020-07-09 03:00:00 20.9 0 Calma 7 Nordeste 0 -- -- 73
2020-07-09 02:00:00 21.3 0 Calma 4 Norte 0 -- -- 71
2020-07-09 01:00:00 22.3 0 Calma 6 Sur 0 -- -- 63
2020-07-09 00:00:00 22.8 3 Sudeste 8 Sudeste 0 -- -- 60
2020-07-08 23:00:00 23.4 4 Sur 11 Sudeste 0 -- -- 57
2020-07-08 22:00:00 24.1 5 Sudeste 12 Sur 0 -- -- 54
2020-07-08 21:00:00 25.7 5 Sur 17 Sudeste 0 -- -- 48
2020-07-08 20:00:00 27.3 11 Sudoeste 19 Sur 0 -- -- 43
2020-07-08 19:00:00 28.5 8 Sudeste 19 Sudeste 0 -- -- 40
2020-07-08 18:00:00 30.1 10 Sur 22 Sudeste 0 -- -- 35
2020-07-08 17:00:00 31.3 7 Sur 23 Sur 0 -- -- 34
2020-07-08 16:00:00 31.4 12 Sur 26 Sudeste 0 -- -- 34
2020-07-08 15:00:00 31.4 8 Sur 24 Sudeste 0 -- -- 35
2020-07-08 14:00:00 31.1 9 Sudeste 21 Sur 0 -- -- 35
2020-07-08 13:00:00 30.5 6 Sur 17 Sur 0 -- -- 39
2020-07-08 12:00:00 29.4 6 Sur 14 Sur 0 -- -- 35
2020-07-08 11:00:00 28.3 7 Sur 13 Sur 0 -- -- 34
2020-07-08 10:00:00 26.4 3 Este 12 Sudeste 0 -- -- 34
2020-07-08 09:00:00 23.6 0 Calma 6 Noroeste 0 -- -- 73
2020-07-08 08:00:00 21.9 0 Calma 4 Oeste 0 -- -- 82
2020-07-08 07:00:00 21.7 0 Calma 5 Nordeste 0 -- -- 81
2020-07-08 06:00:00 21.9 4 Nordeste 5 Sur 0 -- -- 80
2020-07-08 05:00:00 22.2 0 Calma 5 Este 0 -- -- 78
2020-07-08 04:00:00 22.5 0 Calma 4 Noroeste 0 -- -- 77
2020-07-08 03:00:00 22.6 0 Calma 5 Este 0 -- -- 75
2020-07-08 02:00:00 22.6 0 Calma 5 Este 0 -- -- 73
2020-07-08 01:00:00 23.2 3 Sur 6 Sur 0 -- -- 70
2020-07-08 00:00:00 23.2 3 Sur 8 Sudeste 0 -- -- 70
2020-07-07 23:00:00 23.3 2 Sudoeste 11 Sudoeste 0 -- -- 69
2020-07-07 22:00:00 23.7 7 Sudoeste 15 Sudoeste 0 -- -- 67
2020-07-07 21:00:00 24.6 8 Sudoeste 19 Sur 0 -- -- 63
2020-07-07 20:00:00 26.2 8 Sur 20 Sur 0 -- -- 58
2020-07-07 19:00:00 27.5 8 Sur 21 Sudeste 0 -- -- 52
2020-07-07 18:00:00 28.5 11 Sur 25 Sur 0 -- -- 50
2020-07-07 17:00:00 29.5 11 Sur 23 Sudeste 0 -- -- 50
2020-07-07 16:00:00 30.3 11 Sudeste 27 Sudeste 0 -- -- 51
2020-07-07 15:00:00 30.7 11 Sur 20 Sudeste 0 -- -- 49
2020-07-07 14:00:00 30.7 4 Sur 12 Sudoeste 0 -- -- 43
2020-07-07 13:00:00 29.3 4 Oeste 11 Noroeste 0 -- -- 47
2020-07-07 12:00:00 27.3 3 Noroeste 12 Norte 0 -- -- 52
2020-07-07 11:00:00 25.5 4 Norte 12 Norte 0 -- -- 51
2020-07-07 10:00:00 23.6 6 Norte 12 Noroeste 0 -- -- 52
2020-07-07 09:00:00 22 4 Norte 12 Nordeste 0 -- -- 54
2020-07-07 08:00:00 20.4 4 Nordeste 10 Norte 0 -- -- 56
2020-07-07 07:00:00 20.2 3 Norte 9 Nordeste 0 -- -- 56
2020-07-07 06:00:00 21 3 Norte 12 Norte 0 -- -- 56
2020-07-07 05:00:00 21.6 3 Nordeste 10 Norte 0 -- -- 55
2020-07-07 04:00:00 22.4 2 Nordeste 9 Nordeste 0 -- -- 53
2020-07-07 03:00:00 22.9 4 Norte 7 Nordeste 0 -- -- 55
2020-07-07 02:00:00 23.2 0 Calma 12 Norte 0 -- -- 57
2020-07-07 01:00:00 23.6 4 Nordeste 11 Nordeste 0 -- -- 57
2020-07-07 00:00:00 23.9 4 Nordeste 9 Norte 0 -- -- 57
2020-07-06 23:00:00 24.8 4 Norte 12 Nordeste 0 -- -- 55
2020-07-06 22:00:00 25.9 5 Nordeste 15 Nordeste 0 -- -- 52
2020-07-06 21:00:00 27.1 5 Nordeste 16 Noroeste 0 -- -- 50
2020-07-06 20:00:00 28.5 5 Nordeste 14 Nordeste 0 -- -- 49
2020-07-06 19:00:00 29.5 6 Nordeste 14 Este 0 -- -- 47
2020-07-06 18:00:00 30.9 6 Sudeste 18 Sudoeste 0 -- -- 54
2020-07-06 17:00:00 32.4 8 Sur 15 Nordeste 0 -- -- 50
2020-07-06 16:00:00 32 4 Nordeste 19 Norte 0 -- -- 42
2020-07-06 15:00:00 31 6 Norte 20 Norte 0 -- -- 43
2020-07-06 14:00:00 30.9 9 Norte 22 Este 0 -- -- 44
2020-07-06 13:00:00 31.4 5 Sur 13 Nordeste 0 -- -- 44
2020-07-06 12:00:00 29.3 6 Norte 17 Noroeste 0 -- -- 49
2020-07-06 11:00:00 27.8 5 Norte 15 Norte 0 -- -- 57
2020-07-06 10:00:00 25.8 6 Norte 15 Noroeste 0 -- -- 63
2020-07-06 09:00:00 22.3 0 Calma 4 Norte 0 -- -- 75
2020-07-06 08:00:00 19.5 0 Calma 4 Norte 0 -- -- 86
2020-07-06 07:00:00 18.4 3 Norte 5 Nordeste 0 -- -- 92
2020-07-06 06:00:00 18.4 0 Calma 2 Oeste 0 -- -- 90
2020-07-06 05:00:00 19 0 Calma 4 Noroeste 0 -- -- 87
2020-07-06 04:00:00 19.9 0 Calma 5 Noroeste 0 -- -- 85
2020-07-06 03:00:00 20.3 0 Calma 3 Noroeste 0 -- -- 82
2020-07-06 02:00:00 21.2 0 Calma 3 Noroeste 0 -- -- 82
2020-07-06 01:00:00 22.1 0 Calma 4 Noroeste 0 -- -- 76
2020-07-06 00:00:00 23.1 0 Calma 5 Oeste 0 -- -- 73
2020-07-05 23:00:00 24.9 0 Calma 4 Sudoeste 0 -- -- 64
2020-07-05 22:00:00 27.1 0 Calma 6 Sudeste 0 -- -- 55
2020-07-05 21:00:00 29.2 4 Sur 11 Sur 0 -- -- 45
2020-07-05 20:00:00 30.3 6 Sudeste 16 Sur 0 -- -- 42
2020-07-05 19:00:00 31.3 8 Sur 19 Sur 0 -- -- 41
2020-07-05 18:00:00 33.2 8 Sur 17 Sur 0 -- -- 41
2020-07-05 17:00:00 33.6 8 Sur 15 Sudeste 0 -- -- 40
2020-07-05 16:00:00 33.4 9 Sur 20 Sur 0 -- -- 39
2020-07-05 15:00:00 32.9 5 Sudoeste 17 Sur 0 -- -- 38
2020-07-05 14:00:00 32 3 Norte 15 Sudeste 0 -- -- 37
2020-07-05 13:00:00 31.1 8 Sur 16 Sudoeste 0 -- -- 38
2020-07-05 12:00:00 29.2 6 Sudeste 15 Sur 0 -- -- 46
2020-07-05 11:00:00 27.3 6 Sudeste 15 Sur 0 -- -- 49
2020-07-05 10:00:00 24.3 3 Sudeste 8 Sur 0 -- -- 68
2020-07-05 09:00:00 21.3 2 Sudoeste 8 Sudoeste 0 -- -- 82
2020-07-05 08:00:00 18.5 0 Calma 3 Norte 0 -- -- 96
2020-07-05 07:00:00 17.6 0 Calma 4 Noroeste 0 -- -- 97
2020-07-05 06:00:00 17.8 0 Calma 5 Noroeste 0 -- -- 97
2020-07-05 05:00:00 18.2 0 Calma 4 Norte 0 -- -- 95
2020-07-05 04:00:00 18.9 0 Calma 4 Nordeste 0 -- -- 93
2020-07-05 03:00:00 19.4 0 Calma 6 Nordeste 0 -- -- 92
2020-07-05 02:00:00 20.1 0 Calma 6 Noroeste 0 -- -- 89
2020-07-05 01:00:00 21 0 Calma 5 Sur 0 -- -- 83
2020-07-05 00:00:00 21.9 3 Sudeste 6 Sudeste 0 -- -- 79
2020-07-04 23:00:00 22.6 3 Sudoeste 8 Sudeste 0 -- -- 76
2020-07-04 22:00:00 23.3 4 Sur 13 Sudeste 0 -- -- 72
2020-07-04 21:00:00 24.6 5 Sur 15 Sudeste 0 -- -- 66
2020-07-04 20:00:00 25.6 6 Sur 17 Sur 0 -- -- 61
2020-07-04 19:00:00 26.6 10 Sur 19 Sudeste 0 -- -- 58
2020-07-04 18:00:00 28.2 8 Sudeste 24 Sudeste 0 -- -- 52
2020-07-04 17:00:00 29.5 9 Sur 24 Sudeste 0 -- -- 50
2020-07-04 16:00:00 29.9 4 Sur 16 Sur 0 -- -- 41
2020-07-04 15:00:00 28.5 4 Oeste 15 Sudoeste 0 -- -- 46
2020-07-04 14:00:00 27.7 5 Sur 13 Sur 0 -- -- 48
2020-07-04 13:00:00 26.8 6 Sur 13 Sudeste 0 -- -- 50
2020-07-04 12:00:00 25.4 5 Sur 10 Norte 0 -- -- 48
2020-07-04 11:00:00 23.7 3 Este 14 Norte 0 -- -- 53
2020-07-04 10:00:00 21.9 6 Norte 16 Norte 0 -- -- 54
2020-07-04 09:00:00 20.3 5 Norte 18 Norte 0 -- -- 61
2020-07-04 08:00:00 18.9 5 Norte 14 Nordeste 0 -- -- 62
2020-07-04 07:00:00 19 3 Norte 11 Noroeste 0 -- -- 61
2020-07-04 06:00:00 19.4 3 Noroeste 10 Norte 0 -- -- 58
2020-07-04 05:00:00 19.9 2 Nordeste 6 Norte 0 -- -- 57
2020-07-04 04:00:00 20.1 0 Calma 5 Noroeste 0 -- -- 67
2020-07-04 03:00:00 20.3 2 Norte 9 Norte 0 -- -- 61
2020-07-04 02:00:00 20.5 2 Norte 10 Norte 0 -- -- 60
2020-07-04 01:00:00 20.8 3 Norte 8 Norte 0 -- -- 69
2020-07-04 00:00:00 21.2 0 Calma 4 Nordeste 0 -- -- 77
2020-07-03 23:00:00 21.5 3 Sur 8 Sur 0 -- -- 75
2020-07-03 22:00:00 21.7 3 Sudeste 12 Sur 0 -- -- 75
2020-07-03 21:00:00 22 5 Sur 13 Sudeste 0 -- -- 73
2020-07-03 20:00:00 22.7 6 Sur 14 Sudeste 0 -- -- 67
2020-07-03 19:00:00 23.5 6 Sur 15 Sur 0 -- -- 66
2020-07-03 18:00:00 24.3 6 Sudeste 13 Sudeste 0 -- -- 52
2020-07-03 17:00:00 24.6 2 Nordeste 11 Noroeste 0 -- -- 52
2020-07-03 16:00:00 24.4 6 Nordeste 15 Este 0 -- -- 49
2020-07-03 15:00:00 23.4 5 Nordeste 13 Nordeste 0 -- -- 53
2020-07-03 14:00:00 23.1 6 Nordeste 13 Norte 0 -- -- 55
2020-07-03 13:00:00 22.3 4 Nordeste 14 Norte 0 -- -- 63
2020-07-03 12:00:00 21.3 7 Norte 15 Norte 0 -- -- 65
2020-07-03 11:00:00 20.2 6 Norte 18 Norte 0 -- -- 71
2020-07-03 10:00:00 18.9 3 Norte 12 Norte 0 -- -- 81
2020-07-03 09:00:00 17.7 4 Norte 9 Sudeste 0 -- -- 85
2020-07-03 08:00:00 17.1 4 Nordeste 9 Este 0.4 -- -- 90
2020-07-03 07:00:00 17.2 3 Este 14 Nordeste 0.2 -- -- 97
2020-07-03 06:00:00 17 4 Norte 15 Norte 0.6 -- -- 95
2020-07-03 05:00:00 17.3 4 Noroeste 15 Norte 1 -- -- 96
2020-07-03 04:00:00 17.9 5 Sur 14 Nordeste 1.6 -- -- 96
2020-07-03 03:00:00 18.3 7 Noroeste 15 Noroeste 0.4 -- -- 95
2020-07-03 02:00:00 18.6 3 Sudoeste 13 Noroeste 2.4 -- -- 96
2020-07-03 01:00:00 19.1 3 Noroeste 13 Noroeste 0.2 -- -- 94
2020-07-03 00:00:00 19.4 2 Sudeste 15 Norte 0.4 -- -- 93
2020-07-02 23:00:00 19.8 3 Norte 10 Noroeste 0 -- -- 95
2020-07-02 22:00:00 20 5 Este 13 Este 0 -- -- 92
2020-07-02 21:00:00 20.3 6 Norte 17 Noroeste 0.4 -- -- 89
2020-07-02 20:00:00 21.4 8 Nordeste 23 Norte 4 -- -- 85
2020-07-02 19:00:00 21.9 11 Norte 31 Norte 0 -- -- 75
2020-07-02 18:00:00 25.3 9 Nordeste 18 Nordeste 0 -- -- 73
2020-07-02 17:00:00 25.8 4 Nordeste 8 Sudeste 0 -- -- 75
2020-07-02 16:00:00 23.7 4 Norte 15 Sudeste 4 -- -- 90
2020-07-02 15:00:00 23.6 4 Sudoeste 21 Norte 0.8 -- -- 87
2020-07-02 14:00:00 27.1 6 Sudeste 19 Este 1.4 -- -- 75
2020-07-02 13:00:00 31.4 6 Sudeste 16 Sudeste 0 -- -- 49
2020-07-02 12:00:00 30.6 5 Sudeste 16 Sur 0 -- -- 52
2020-07-02 11:00:00 28.9 4 Sudeste 10 Este 0 -- -- 57
2020-07-02 10:00:00 26.7 4 Este 8 Norte 0 -- -- 64
2020-07-02 09:00:00 24.7 2 Noroeste 8 Norte 0 -- -- 74
2020-07-02 08:00:00 22.2 2 Noroeste 5 Noroeste 0 -- -- 87
2020-07-02 07:00:00 21.7 0 Calma 7 Sudoeste 0 -- -- 86
2020-07-02 06:00:00 22.1 3 Sudoeste 6 Sur 0 -- -- 84
2020-07-02 05:00:00 22.4 0 Calma 5 Sur 0 -- -- 82
2020-07-02 04:00:00 22.6 3 Sudeste 8 Nordeste 0 -- -- 82
2020-07-02 03:00:00 22.8 3 Sudeste 7 Nordeste 0 -- -- 80
2020-07-02 02:00:00 23.1 3 Sur 6 Sur 0 -- -- 78
2020-07-02 01:00:00 23.8 0 Calma 6 Noroeste 0 -- -- 74
2020-07-02 00:00:00 24.1 0 Calma 6 Oeste 0 -- -- 73
2020-07-01 23:00:00 25 0 Calma 5 Sudoeste 0 -- -- 70
2020-07-01 22:00:00 25.8 3 Norte 13 Nordeste 0 -- -- 66
2020-07-01 21:00:00 26.6 6 Nordeste 18 Nordeste 0 -- -- 67
2020-07-01 20:00:00 28.5 8 Norte 28 Noroeste 0 -- -- 55
2020-07-01 19:00:00 31.3 4 Sudeste 16 Sudeste 0 -- -- 42
2020-07-01 18:00:00 33.2 9 Sur 23 Sudeste 0 -- -- 33
2020-07-01 17:00:00 34.2 10 Sur 28 Sur 0 -- -- 32
2020-07-01 16:00:00 34.2 12 Sur 27 Sudeste 0 -- -- 30
2020-07-01 15:00:00 34.1 13 Sur 28 Sudeste 0 -- -- 30
2020-07-01 14:00:00 33.8 11 Sudeste 23 Sur 0 -- -- 32
2020-07-01 13:00:00 33.2 8 Sur 16 Sur 0 -- -- 39
2020-07-01 12:00:00 30.6 4 Sudeste 11 Sudeste 0 -- -- 54
2020-07-01 11:00:00 28.1 2 Sur 6 Sudeste 0 -- -- 67
2020-07-01 10:00:00 25.7 3 Sur 8 Sudoeste 0 -- -- 76
2020-07-01 09:00:00 23.5 2 Sudeste 5 Sudoeste 0 -- -- 88
2020-07-01 08:00:00 21.7 4 Sudeste 8 Sudeste 0 -- -- 95
2020-07-01 07:00:00 21.3 2 Sudeste 7 Sudoeste 0 -- -- 96
2020-07-01 06:00:00 21.4 0 Calma 9 Noroeste 0 -- -- 96
2020-07-01 05:00:00 21.7 0 Calma 8 Sur 0 -- -- 95
2020-07-01 04:00:00 21.9 4 Oeste 17 Sur 0 -- -- 95
2020-07-01 03:00:00 21.7 5 Sudeste 11 Sur 0 -- -- 95
2020-07-01 02:00:00 21.9 4 Sudeste 13 Sudeste 0 -- -- 93
2020-07-01 01:00:00 22.4 4 Sudeste 10 Sudeste 0 -- -- 90
2020-07-01 00:00:00 22.8 4 Sur 10 Sudeste 0 -- -- 89
2020-06-30 23:00:00 23.4 4 Sur 10 Sudeste 0 -- -- 85
2020-06-30 22:00:00 24.2 4 Sur 13 Sur 0 -- -- 81
2020-06-30 21:00:00 25 8 Sur 22 Sur 0 -- -- 77
2020-06-30 20:00:00 26.4 8 Sur 22 Sudeste 0 -- -- 71
2020-06-30 19:00:00 27 10 Sudeste 24 Sudeste 0 -- -- 69
2020-06-30 18:00:00 28.2 12 Sudeste 26 Sudeste 0 -- -- 65
2020-06-30 17:00:00 28.6 13 Sur 32 Sur 0 -- -- 63
2020-06-30 16:00:00 29.1 10 Sur 28 Sudeste 0 -- -- 63
2020-06-30 15:00:00 28.3 11 Sur 23 Sur 0 -- -- 65
2020-06-30 14:00:00 27.1 9 Sur 22 Sur 0 -- -- 67
2020-06-30 13:00:00 25.4 6 Sur 18 Sur 0 -- -- 74
2020-06-30 12:00:00 24.8 5 Sudeste 12 Sudeste 0 -- -- 78
2020-06-30 11:00:00 24.5 5 Sudeste 9 Sur 0 -- -- 76
2020-06-30 10:00:00 23.1 3 Sur 6 Sur 0 -- -- 79
2020-06-30 09:00:00 22.3 2 Sur 5 Sudeste 0 -- -- 84
2020-06-30 08:00:00 21.9 4 Sudeste 7 Sudeste 0 -- -- 88
2020-06-30 07:00:00 21.7 4 Sudeste 7 Sudeste 0 -- -- 89
2020-06-30 06:00:00 21.7 4 Sur 9 Este 0 -- -- 89
2020-06-30 05:00:00 21.9 2 Sur 6 Sudeste 0 -- -- 86
2020-06-30 04:00:00 22.1 3 Sur 6 Sudeste 0 -- -- 84
2020-06-30 03:00:00 22.1 3 Sur 4 Sur 0 -- -- 83
2020-06-30 02:00:00 22.2 4 Sudeste 6 Sudeste 0 -- -- 81
2020-06-30 01:00:00 22.2 2 Este 6 Norte 0 -- -- 80
2020-06-30 00:00:00 22.1 3 Este 8 Este 0 -- -- 80
2020-06-29 23:00:00 21.9 4 Este 14 Norte 0 -- -- 84
2020-06-29 22:00:00 22.4 6 Norte 13 Este 0 -- -- 82
2020-06-29 21:00:00 24 3 Este 11 Sur 0 -- -- 78
2020-06-29 20:00:00 24.9 3 Oeste 18 Norte 0 -- -- 71
2020-06-29 19:00:00 25.9 3 Noroeste 18 Sudeste 0 -- -- 66
2020-06-29 18:00:00 28.1 10 Sur 23 Sur 0 -- -- 59
2020-06-29 17:00:00 30 10 Sur 24 Sur 0 -- -- 50
2020-06-29 16:00:00 30.2 13 Sur 24 Sudoeste 0 -- -- 48
2020-06-29 15:00:00 30 11 Sudeste 26 Sudeste 0 -- -- 46
2020-06-29 14:00:00 30 12 Sur 24 Sudeste 0 -- -- 47
2020-06-29 13:00:00 29 10 Sur 23 Sudeste 0 -- -- 54
2020-06-29 12:00:00 27.9 10 Sur 21 Sudoeste 0 -- -- 58
2020-06-29 11:00:00 28.4 6 Sur 15 Sudeste 0 -- -- 56
2020-06-29 10:00:00 26.2 3 Este 12 Sudeste 0 -- -- 63
2020-06-29 09:00:00 23.4 2 Oeste 4 Oeste 0 -- -- 78
2020-06-29 08:00:00 21.1 0 Calma 3 Norte 0 -- -- 85
2020-06-29 07:00:00 20.3 0 Calma 4 Este 0 -- -- 87
2020-06-29 06:00:00 20.4 2 Nordeste 5 Nordeste 0 -- -- 87
2020-06-29 05:00:00 20.9 0 Calma 6 Sudeste 0 -- -- 84
2020-06-29 04:00:00 21.3 0 Calma 5 Nordeste 0 -- -- 83
2020-06-29 03:00:00 21.9 0 Calma 6 Sur 0 -- -- 78
2020-06-29 02:00:00 22.2 0 Calma 7 Este 0 -- -- 76
2020-06-29 01:00:00 22.8 0 Calma 3 Noroeste 0 -- -- 74
2020-06-29 00:00:00 23.8 0 Calma 6 Sudeste 0 -- -- 70
2020-06-28 23:00:00 24.7 2 Sudeste 11 Sudeste 0 -- -- 64
2020-06-28 22:00:00 25.4 5 Sudeste 10 Sudeste 0 -- -- 63
2020-06-28 21:00:00 26.7 6 Sudoeste 15 Sur 0 -- -- 55
2020-06-28 20:00:00 27.6 8 Sur 19 Sur 0 -- -- 50
2020-06-28 19:00:00 29.1 10 Sur 22 Sudeste 0 -- -- 46
2020-06-28 18:00:00 30.6 10 Sur 21 Sudeste 0 -- -- 41
2020-06-28 17:00:00 31.3 6 Sudeste 23 Sudeste 0 -- -- 46
2020-06-28 16:00:00 31.5 12 Sudeste 27 Sudeste 0 -- -- 49
2020-06-28 15:00:00 31.7 12 Sudeste 22 Sudeste 0 -- -- 49
2020-06-28 14:00:00 32.3 6 Sur 16 Sudoeste 0 -- -- 48
2020-06-28 13:00:00 30.6 4 Nordeste 12 Este 0 -- -- 52
2020-06-28 12:00:00 30.1 3 Sudeste 12 Sudoeste 0 -- -- 53
2020-06-28 11:00:00 28.6 4 Nordeste 10 Norte 0 -- -- 57
2020-06-28 10:00:00 25.9 2 Noroeste 6 Sudoeste 0 -- -- 68
2020-06-28 09:00:00 23.1 2 Sudoeste 5 Sudoeste 0 -- -- 82
2020-06-28 08:00:00 20.8 0 Calma 6 Este 0 -- -- 93
2020-06-28 07:00:00 20.4 2 Sudeste 5 Sudeste 0 -- -- 94
2020-06-28 06:00:00 20.3 2 Nordeste 7 Sudeste 0 -- -- 93
2020-06-28 05:00:00 20.8 0 Calma 5 Sur 0 -- -- 92
2020-06-28 04:00:00 21.1 0 Calma 8 Sudoeste 0 -- -- 91
2020-06-28 03:00:00 21.6 0 Calma 5 Sur 0 -- -- 90
2020-06-28 02:00:00 22.1 0 Calma 5 Sur 0 -- -- 87
2020-06-28 01:00:00 22.5 2 Sur 6 Sudeste 0 -- -- 85
2020-06-28 00:00:00 23 4 Sur 9 Este 0 -- -- 82
2020-06-27 23:00:00 23.4 5 Sur 11 Sudeste 0 -- -- 80
2020-06-27 22:00:00 24.3 5 Sur 13 Sudoeste 0 -- -- 74
2020-06-27 21:00:00 25.5 7 Sudoeste 17 Sudoeste 0 -- -- 68
2020-06-27 20:00:00 27.3 7 Sur 19 Sur 0 -- -- 60
2020-06-27 19:00:00 28.9 7 Sur 20 Sur 0 -- -- 53
2020-06-27 18:00:00 30.4 10 Sur 23 Sudoeste 0 -- -- 43
2020-06-27 17:00:00 30.8 10 Sur 24 Sur 0 -- -- 43
2020-06-27 16:00:00 30.9 10 Sudeste 25 Sudeste 0 -- -- 45
2020-06-27 15:00:00 31.1 9 Sur 23 Sur 0 -- -- 45
2020-06-27 14:00:00 30.8 11 Sur 22 Sur 0 -- -- 40
2020-06-27 13:00:00 30.2 10 Sur 26 Sudoeste 0 -- -- 42
2020-06-27 12:00:00 28.7 6 Sur 15 Sudeste 0 -- -- 56
2020-06-27 11:00:00 27.2 5 Sur 14 Sudeste 0 -- -- 60
2020-06-27 10:00:00 24.7 3 Sur 9 Sur 0 -- -- 65
2020-06-27 09:00:00 22.3 2 Oeste 5 Sudoeste 0 -- -- 70
2020-06-27 08:00:00 20 0 Calma 3 Oeste 0 -- -- 78
2020-06-27 07:00:00 19.6 0 Calma 4 Sur 0 -- -- 77
2020-06-27 06:00:00 19.8 0 Calma 4 Oeste 0 -- -- 73
2020-06-27 05:00:00 20.4 0 Calma 6 Norte 0 -- -- 72
2020-06-27 04:00:00 20.7 3 Norte 8 Noroeste 0 -- -- 69
2020-06-27 03:00:00 20.7 0 Calma 6 Sur 0 -- -- 69
2020-06-27 02:00:00 20.8 0 Calma 11 Sur 0 -- -- 65
2020-06-27 01:00:00 21.2 0 Calma 8 Sudeste 0 -- -- 62
2020-06-27 00:00:00 22.2 3 Este 10 Sudeste 0 -- -- 60
2020-06-26 23:00:00 22.9 0 Calma 10 Sudeste 0 -- -- 59
2020-06-26 22:00:00 24.5 4 Sudeste 17 Sudeste 0 -- -- 53
2020-06-26 21:00:00 26.2 7 Sudeste 18 Sudeste 0 -- -- 46
2020-06-26 20:00:00 27.7 10 Sudeste 30 Sudeste 0 -- -- 39
2020-06-26 19:00:00 29.1 14 Sudeste 33 Sudeste 0 -- -- 35
2020-06-26 18:00:00 30.7 13 Sur 36 Sudeste 0 -- -- 34
2020-06-26 17:00:00 31.4 12 Sur 33 Sur 0 -- -- 32
2020-06-26 16:00:00 31.8 14 Sur 35 Sudeste 0 -- -- 30
2020-06-26 15:00:00 31.5 15 Sur 33 Sudeste 0 -- -- 31
2020-06-26 14:00:00 31.5 15 Sur 30 Sur 0 -- -- 31
2020-06-26 13:00:00 31.5 10 Sur 24 Sudeste 0 -- -- 35
2020-06-26 12:00:00 30.4 10 Sur 20 Sudeste 0 -- -- 39
2020-06-26 11:00:00 28.8 8 Sur 18 Sur 0 -- -- 42
2020-06-26 10:00:00 25.4 5 Sur 10 Sur 0 -- -- 57
2020-06-26 09:00:00 22.8 3 Sudeste 6 Sudeste 0 -- -- 72
2020-06-26 08:00:00 20.5 3 Sur 5 Sudeste 0 -- -- 86
2020-06-26 07:00:00 19 0 Calma 3 Noroeste 0 -- -- 92
2020-06-26 06:00:00 19.4 0 Calma 3 Noroeste 0 -- -- 90
2020-06-26 05:00:00 20 0 Calma 3 Noroeste 0 -- -- 87
2020-06-26 04:00:00 20.9 0 Calma 4 Noroeste 0 -- -- 83
2020-06-26 03:00:00 21.2 0 Calma 6 Sudeste 0 -- -- 80
2020-06-26 02:00:00 21.6 0 Calma 8 Sur 0 -- -- 74
2020-06-26 01:00:00 21.9 3 Sur 8 Sudeste 0 -- -- 74
2020-06-26 00:00:00 22.8 4 Sudeste 8 Sudeste 0 -- -- 68
2020-06-25 23:00:00 23.6 3 Sur 6 Sudeste 0 -- -- 64
2020-06-25 22:00:00 24.8 4 Sudeste 10 Sudeste 0 -- -- 60
2020-06-25 21:00:00 26.1 4 Sur 11 Sur 0 -- -- 49
2020-06-25 20:00:00 26.9 4 Este 21 Sur 0 -- -- 50
2020-06-25 19:00:00 28.4 9 Sur 22 Sudoeste 0 -- -- 45
2020-06-25 18:00:00 30.3 5 Sur 16 Sudoeste 0 -- -- 42
2020-06-25 17:00:00 32 8 Sur 20 Sudeste 0 -- -- 39
2020-06-25 16:00:00 31.8 9 Sur 22 Este 0 -- -- 40
2020-06-25 15:00:00 31.1 10 Sur 20 Sur 0 -- -- 44
2020-06-25 14:00:00 30.9 8 Sudeste 18 Sudeste 0 -- -- 48
2020-06-25 13:00:00 30.2 6 Este 16 Sudeste 0 -- -- 51
2020-06-25 12:00:00 28.9 5 Sur 12 Este 0 -- -- 48
2020-06-25 11:00:00 27.2 3 Oeste 7 Noroeste 0 -- -- 59
2020-06-25 10:00:00 24.7 2 Oeste 4 Norte 0 -- -- 67
2020-06-25 09:00:00 21.9 0 Calma 5 Noroeste 0 -- -- 80
2020-06-25 08:00:00 19.7 0 Calma 3 Este 0 -- -- 91
2020-06-25 07:00:00 18.8 3 Nordeste 4 Este 0 -- -- 94
2020-06-25 06:00:00 19 0 Calma 3 Sudoeste 0 -- -- 92
2020-06-25 05:00:00 19.8 0 Calma 5 Noroeste 0 -- -- 90
2020-06-25 04:00:00 20.6 0 Calma 6 Sudeste 0 -- -- 85
2020-06-25 03:00:00 21.1 3 Sudeste 6 Sudeste 0 -- -- 84
2020-06-25 02:00:00 20.6 0 Calma 5 Sur 0 -- -- 79
2020-06-25 01:00:00 21.4 0 Calma 6 Sudoeste 0 -- -- 71
2020-06-25 00:00:00 22.3 3 Sur 12 Sur 0 -- -- 69
2020-06-24 23:00:00 23 4 Sudeste 12 Sur 0 -- -- 68
2020-06-24 22:00:00 23.9 6 Sudeste 14 Sudeste 0 -- -- 65
2020-06-24 21:00:00 25.1 6 Sur 17 Sur 0 -- -- 60
2020-06-24 20:00:00 26.3 7 Sur 22 Sudeste 0 -- -- 56
2020-06-24 19:00:00 27.8 14 Sudeste 30 Sudeste 0 -- -- 52
2020-06-24 18:00:00 29.1 15 Sur 39 Sudeste 0 -- -- 48
2020-06-24 17:00:00 30.2 13 Sur 33 Sudeste 0 -- -- 46
2020-06-24 16:00:00 30.7 13 Sur 32 Sur 0 -- -- 45
2020-06-24 15:00:00 30.8 13 Sudeste 31 Sudeste 0 -- -- 42
2020-06-24 14:00:00 30.7 12 Sur 26 Sur 0 -- -- 47
2020-06-24 13:00:00 30.1 10 Sur 27 Sur 0 -- -- 48
2020-06-24 12:00:00 29.3 11 Sudeste 24 Sudeste 0 -- -- 49
2020-06-24 11:00:00 27.5 8 Sur 18 Sur 0 -- -- 50
2020-06-24 10:00:00 24.6 6 Sur 14 Sur 0 -- -- 62
2020-06-24 09:00:00 22.1 6 Sur 13 Sudeste 0 -- -- 72
2020-06-24 08:00:00 20 5 Sudeste 10 Sudeste 0 -- -- 84
2020-06-24 07:00:00 19.5 3 Sur 8 Sur 0 -- -- 93
2020-06-24 06:00:00 19.7 3 Sudeste 10 Sudeste 0 -- -- 94
2020-06-24 05:00:00 19.8 2 Sur 8 Sudeste 0 -- -- 91
2020-06-24 04:00:00 20.2 4 Sudeste 10 Sudeste 0 -- -- 87
2020-06-24 03:00:00 20.7 3 Sur 6 Sudoeste 0 -- -- 78
2020-06-24 02:00:00 21.2 3 Sur 7 Sudeste 0 -- -- 74
2020-06-24 01:00:00 22.1 3 Sur 7 Sudeste 0 -- -- 68
2020-06-24 00:00:00 22.7 3 Sur 6 Sur 0 -- -- 65
2020-06-23 23:00:00 23.2 2 Sur 9 Sur 0 -- -- 61
2020-06-23 22:00:00 24.2 3 Sudeste 13 Sudeste 0 -- -- 58
2020-06-23 21:00:00 25.5 6 Sudeste 21 Sudeste 0 -- -- 55
2020-06-23 20:00:00 26.9 10 Sur 22 Sudeste 0 -- -- 52
2020-06-23 19:00:00 28.3 10 Sur 25 Sudeste 0 -- -- 47
2020-06-23 18:00:00 29.6 12 Sudeste 25 Sudeste 0 -- -- 45
2020-06-23 17:00:00 30.5 11 Sur 27 Sur 0 -- -- 43
2020-06-23 16:00:00 30.4 13 Sudeste 28 Sudeste 0 -- -- 42
2020-06-23 15:00:00 30.3 14 Sur 27 Sudeste 0 -- -- 42
2020-06-23 14:00:00 30.1 12 Sur 27 Sudeste 0 -- -- 41
2020-06-23 13:00:00 29.5 10 Sudeste 22 Sudeste 0 -- -- 44
2020-06-23 12:00:00 29 8 Sudeste 20 Sudeste 0 -- -- 44
2020-06-23 11:00:00 28.3 7 Sur 16 Sudeste 0 -- -- 48
2020-06-23 10:00:00 25.8 3 Sur 9 Sudeste 0 -- -- 64
2020-06-23 09:00:00 23.3 3 Sur 7 Sudeste 0 -- -- 76
2020-06-23 08:00:00 21.2 3 Sur 8 Sur 0 -- -- 84
2020-06-23 07:00:00 20.7 3 Sur 6 Sur 0 -- -- 89
2020-06-23 06:00:00 20.7 4 Sudeste 7 Sudeste 0 -- -- 90
2020-06-23 05:00:00 21 3 Sur 6 Sudoeste 0 -- -- 90
2020-06-23 04:00:00 21.4 2 Sudeste 6 Sudeste 0 -- -- 87
2020-06-23 03:00:00 21.8 3 Sur 6 Sudeste 0 -- -- 86
2020-06-23 02:00:00 22.2 3 Sur 8 Sur 0 -- -- 84
2020-06-23 01:00:00 22.5 5 Sudeste 8 Sudeste 0 -- -- 82
2020-06-23 00:00:00 22.7 2 Sur 8 Sudeste 0 -- -- 81
2020-06-22 23:00:00 22.9 5 Sudeste 12 Sur 0 -- -- 80
2020-06-22 22:00:00 23.4 7 Sur 13 Sur 0 -- -- 77
2020-06-22 21:00:00 24.6 5 Sur 14 Sudoeste 0 -- -- 72
2020-06-22 20:00:00 26.1 6 Sur 15 Sudeste 0 -- -- 65
2020-06-22 19:00:00 27.5 7 Sur 18 Sudoeste 0 -- -- 53
2020-06-22 18:00:00 28.5 9 Sur 22 Sur 0 -- -- 49
2020-06-22 17:00:00 29.2 11 Sur 24 Sudoeste 0 -- -- 46
2020-06-22 16:00:00 29.7 12 Sur 24 Sudoeste 0 -- -- 46
2020-06-22 15:00:00 30.1 8 Sur 20 Sur 0 -- -- 43
2020-06-22 14:00:00 29.1 6 Este 19 Este 0 -- -- 46
2020-06-22 13:00:00 29.8 5 Sudeste 15 Sudeste 0 -- -- 42
2020-06-22 12:00:00 28 4 Este 13 Sudeste 0 -- -- 48
2020-06-22 11:00:00 26.7 4 Este 11 Nordeste 0 -- -- 50
2020-06-22 10:00:00 24.4 3 Noroeste 7 Sur 0 -- -- 64
2020-06-22 09:00:00 20.9 2 Sur 6 Sudeste 0 -- -- 73
2020-06-22 08:00:00 18 0 Calma 5 Nordeste 0 -- -- 85
2020-06-22 07:00:00 17 0 Calma 5 Sudoeste 0 -- -- 90
2020-06-22 06:00:00 17.1 0 Calma 3 Sudoeste 0 -- -- 89
2020-06-22 05:00:00 17.5 0 Calma 5 Norte 0 -- -- 87
2020-06-22 04:00:00 18 0 Calma 5 Norte 0 -- -- 86
2020-06-22 03:00:00 18.7 0 Calma 5 Nordeste 0 -- -- 84
2020-06-22 02:00:00 19.5 0 Calma 3 Noroeste 0 -- -- 76
2020-06-22 01:00:00 20.6 0 Calma 4 Norte 0 -- -- 73
2020-06-22 00:00:00 22 0 Calma 4 Noroeste 0 -- -- 66
2020-06-21 23:00:00 23.2 0 Calma 12 Noroeste 0 -- -- 56
2020-06-21 22:00:00 24.9 2 Noroeste 17 Este 0 -- -- 43
2020-06-21 21:00:00 26.3 6 Nordeste 23 Nordeste 0 -- -- 38
2020-06-21 20:00:00 27.8 8 Nordeste 21 Nordeste 0 -- -- 36
2020-06-21 19:00:00 28.4 9 Nordeste 24 Nordeste 0 -- -- 38
2020-06-21 18:00:00 28.9 8 Norte 20 Este 0 -- -- 51
2020-06-21 17:00:00 29.6 5 Nordeste 17 Este 0 -- -- 51
2020-06-21 16:00:00 30.7 3 Oeste 14 Sudoeste 0 -- -- 46
2020-06-21 15:00:00 29.9 5 Sur 13 Sudoeste 0 -- -- 47
2020-06-21 14:00:00 29.4 5 Sudeste 19 Sur 0 -- -- 50
2020-06-21 13:00:00 28.3 5 Sur 15 Sur 0 -- -- 51
2020-06-21 12:00:00 26.8 5 Sur 15 Sudeste 0 -- -- 54
2020-06-21 11:00:00 25 3 Sur 8 Sur 0 -- -- 61
2020-06-21 10:00:00 21.9 0 Calma 4 Oeste 0 -- -- 78
2020-06-21 09:00:00 19.6 0 Calma 4 Norte 0 -- -- 90
2020-06-21 08:00:00 17.3 0 Calma 3 Nordeste 0 -- -- 100
2020-06-21 07:00:00 16.7 0 Calma 2 Sudoeste 0 -- -- 100
2020-06-21 06:00:00 16.8 0 Calma 5 Este 0 -- -- 100
2020-06-21 05:00:00 17 2 Nordeste 8 Este 0 -- -- 100
2020-06-21 04:00:00 17.6 0 Calma 3 Sur 0 -- -- 100
2020-06-21 03:00:00 18 0 Calma 4 Sudoeste 0 -- -- 100
2020-06-21 02:00:00 18.8 0 Calma 5 Sudoeste 0 -- -- 100
2020-06-21 01:00:00 19.5 0 Calma 4 Sudoeste 0 -- -- 100
2020-06-21 00:00:00 20 0 Calma 7 Sudeste 0 -- -- 99
2020-06-20 23:00:00 20.5 4 Sur 10 Sudeste 0 -- -- 98
2020-06-20 22:00:00 20.8 4 Sur 8 Sur 0 -- -- 97
2020-06-20 21:00:00 21.1 3 Este 8 Este 0 -- -- 96
2020-06-20 20:00:00 21.1 3 Sudeste 9 Sudeste 0 -- -- 92
2020-06-20 19:00:00 21.5 4 Sur 15 Sur 0.4 -- -- 89
2020-06-20 18:00:00 22.4 6 Sur 17 Sur 0 -- -- 76
2020-06-20 17:00:00 24.1 6 Sur 21 Sur 0 -- -- 67
2020-06-20 16:00:00 26.2 9 Sur 23 Sudeste 0 -- -- 58
2020-06-20 15:00:00 27.9 9 Sur 24 Sudoeste 0 -- -- 54
2020-06-20 14:00:00 27.8 9 Sur 20 Sudoeste 0 -- -- 53
2020-06-20 13:00:00 27.2 4 Sur 18 Sudoeste 0 -- -- 47
2020-06-20 12:00:00 26.1 6 Sudeste 13 Sudeste 0 -- -- 49
2020-06-20 11:00:00 24.6 3 Este 7 Noroeste 0 -- -- 58
2020-06-20 10:00:00 22.1 2 Sur 5 Sudoeste 0 -- -- 64
2020-06-20 09:00:00 19.1 0 Calma 5 Noroeste 0 -- -- 81
2020-06-20 08:00:00 16.7 2 Noroeste 4 Noroeste 0 -- -- 95
2020-06-20 07:00:00 15.8 0 Calma 3 Nordeste 0 -- -- 96
2020-06-20 06:00:00 15.9 0 Calma 4 Nordeste 0 -- -- 92
2020-06-20 05:00:00 16.6 0 Calma 3 Noroeste 0 -- -- 90
2020-06-20 04:00:00 17.3 0 Calma 4 Sur 0 -- -- 89
2020-06-20 03:00:00 17.9 0 Calma 5 Sur 0 -- -- 86
2020-06-20 02:00:00 18.4 2 Sur 6 Este 0 -- -- 81
2020-06-20 01:00:00 18.9 3 Sudeste 8 Sudeste 0 -- -- 78
2020-06-20 00:00:00 19.6 2 Sur 8 Sudeste 0 -- -- 73
2020-06-19 23:00:00 20 4 Sudeste 9 Sur 0 -- -- 71
2020-06-19 22:00:00 20.4 4 Sur 11 Sudeste 0 -- -- 69
2020-06-19 21:00:00 21.1 6 Sur 13 Sudeste 0 -- -- 64
2020-06-19 20:00:00 22 6 Sur 18 Sudeste 0 -- -- 59
2020-06-19 19:00:00 23 7 Sur 19 Sudoeste 0 -- -- 53
2020-06-19 18:00:00 24.3 10 Sur 26 Sudeste 0 -- -- 50
2020-06-19 17:00:00 25.4 10 Sur 23 Sur 0 -- -- 49
2020-06-19 16:00:00 25.6 10 Sur 27 Sur 0 -- -- 49
2020-06-19 15:00:00 25.8 12 Sur 24 Sur 0 -- -- 49
2020-06-19 14:00:00 25.5 10 Sur 23 Sur 0 -- -- 48
2020-06-19 13:00:00 24.7 10 Sur 23 Sur 0.2 -- -- 49
2020-06-19 12:00:00 23.6 8 Sur 16 Sudeste 0 -- -- 49
2020-06-19 11:00:00 22.2 3 Este 7 Sudoeste 0 -- -- 59
2020-06-19 10:00:00 20.2 3 Norte 6 Sudeste 0 -- -- 68
2020-06-19 09:00:00 17.4 3 Sur 6 Sur 0 -- -- 86
2020-06-19 08:00:00 15.5 2 Sudoeste 6 Sudoeste 0 -- -- 99
2020-06-19 07:00:00 14.8 0 Calma 9 Sudeste 0 -- -- 100
2020-06-19 06:00:00 14.7 2 Nordeste 5 Nordeste 0 -- -- 100
2020-06-19 05:00:00 14.5 2 Nordeste 5 Nordeste 0 -- -- 100
2020-06-19 04:00:00 14.6 0 Calma 4 Nordeste 0 -- -- 100
2020-06-19 03:00:00 14.8 0 Calma 5 Este 0 -- -- 100
2020-06-19 02:00:00 15.1 0 Calma 6 Este 0 -- -- 100
2020-06-19 01:00:00 15.5 3 Este 9 Este 0 -- -- 99
2020-06-19 00:00:00 15.9 0 Calma 9 Norte 0 -- -- 98
2020-06-18 23:00:00 16.3 0 Calma 4 Noroeste 0 -- -- 95
2020-06-18 22:00:00 17.2 0 Calma 9 Norte 0 -- -- 93
2020-06-18 21:00:00 17.8 4 Noroeste 11 Norte 0 -- -- 90
2020-06-18 20:00:00 18.4 4 Norte 12 Norte 0 -- -- 84
2020-06-18 19:00:00 18.5 5 Norte 17 Norte 0.4 -- -- 81
2020-06-18 18:00:00 20.5 4 Este 16 Sudoeste 0 -- -- 68
2020-06-18 17:00:00 21.5 6 Nordeste 17 Nordeste 0 -- -- 65
2020-06-18 16:00:00 22.7 4 Sudeste 12 Este 0 -- -- 63
2020-06-18 15:00:00 21.9 4 Este 11 Este 0 -- -- 64
2020-06-18 14:00:00 21.1 4 Sur 10 Sur 0 -- -- 66
2020-06-18 13:00:00 18.8 2 Oeste 14 Sur 0 -- -- 81
2020-06-18 12:00:00 17 8 Sudoeste 19 Sudoeste 0 -- -- 93
2020-06-18 11:00:00 14.7 3 Sudeste 12 Sudeste 2.8 -- -- 100
2020-06-18 10:00:00 14.4 3 Sudeste 11 Sur 2.2 -- -- 100
2020-06-18 09:00:00 14.5 3 Sudeste 9 Sur 0.2 -- -- 100
2020-06-18 08:00:00 14.3 0 Calma 5 Sudeste 0 -- -- 100
2020-06-18 07:00:00 13.5 0 Calma 2 Sudeste 0 -- -- 100
2020-06-18 06:00:00 13.9 0 Calma 4 Norte 0 -- -- 100
2020-06-18 05:00:00 14.1 0 Calma 3 Sur 0 -- -- 100
2020-06-18 04:00:00 14.7 0 Calma 6 Sur 0 -- -- 100
2020-06-18 03:00:00 15.1 3 Sudeste 5 Sudeste 0 -- -- 100
2020-06-18 02:00:00 15.2 0 Calma 3 Norte 0 -- -- 100
2020-06-18 01:00:00 15.2 0 Calma 4 Norte 0 -- -- 100
2020-06-18 00:00:00 15.4 0 Calma 5 Oeste 0 -- -- 100
2020-06-17 23:00:00 15.8 2 Noroeste 5 Norte 0 -- -- 100
2020-06-17 22:00:00 16 0 Calma 4 Oeste 0 -- -- 100
2020-06-17 21:00:00 16 2 Norte 13 Norte 0 -- -- 100
2020-06-17 20:00:00 16.1 5 Norte 14 Norte 0.2 -- -- 98
2020-06-17 19:00:00 16 3 Norte 21 Norte 5.4 -- -- 96
2020-06-17 18:00:00 17.3 10 Norte 25 Norte 0 -- -- 80
2020-06-17 17:00:00 20.7 10 Sur 26 Sur 0 -- -- 68
2020-06-17 16:00:00 20.6 10 Sudeste 21 Sudeste 0 -- -- 70
2020-06-17 15:00:00 19.8 4 Sudeste 14 Sudeste 1 -- -- 86
2020-06-17 14:00:00 21.7 6 Este 15 Este 0 -- -- 66
2020-06-17 13:00:00 20.3 4 Norte 16 Nordeste 0.6 -- -- 69
2020-06-17 12:00:00 20.3 4 Nordeste 9 Nordeste 0 -- -- 67
2020-06-17 11:00:00 19.9 3 Norte 8 Norte 0 -- -- 70
2020-06-17 10:00:00 18.4 0 Calma 6 Norte 0 -- -- 74
2020-06-17 09:00:00 16.2 2 Noroeste 5 Norte 0 -- -- 94
2020-06-17 08:00:00 14.9 0 Calma 7 Nordeste 0 -- -- 100
2020-06-17 07:00:00 14.2 0 Calma 4 Nordeste 0 -- -- 100
2020-06-17 06:00:00 13.8 0 Calma 3 Sudoeste 0 -- -- 100
2020-06-17 05:00:00 13.8 0 Calma 4 Noroeste 0 -- -- 100
2020-06-17 04:00:00 13.9 0 Calma 4 Norte 0 -- -- 100
2020-06-17 03:00:00 14.3 0 Calma 4 Norte 0 -- -- 100
2020-06-17 02:00:00 14.8 0 Calma 4 Nordeste 0 -- -- 100
2020-06-17 01:00:00 15.4 0 Calma 6 Nordeste 0 -- -- 99
2020-06-17 00:00:00 16.2 0 Calma 5 Nordeste 0 -- -- 98
2020-06-16 23:00:00 17 3 Sudoeste 7 Nordeste 0 -- -- 95
2020-06-16 22:00:00 17.7 3 Nordeste 10 Sudoeste 0 -- -- 90
2020-06-16 21:00:00 18 3 Norte 17 Nordeste 0.4 -- -- 83
2020-06-16 20:00:00 20.4 7 Norte 14 Norte 0 -- -- 75
2020-06-16 19:00:00 21.2 4 Nordeste 10 Sur 0 -- -- 73
2020-06-16 18:00:00 21.1 3 Sur 13 Sudoeste 0.2 -- -- 79
2020-06-16 17:00:00 19.2 0 Calma 10 Sudoeste 0.6 -- -- 92
2020-06-16 16:00:00 18.9 0 Calma 12 Sur 1.2 -- -- 89
2020-06-16 15:00:00 19.5 0 Calma 9 Sur 0 -- -- 92
2020-06-16 14:00:00 19 5 Sudeste 9 Sudeste 0.4 -- -- 92
2020-06-16 13:00:00 18.1 4 Sudeste 6 Sudeste 0.4 -- -- 89
2020-06-16 12:00:00 17.8 0 Calma 5 Sur 1 -- -- 92
2020-06-16 11:00:00 17.5 0 Calma 6 Norte 0 -- -- 92
2020-06-16 10:00:00 17.2 3 Norte 7 Norte 0.4 -- -- 92
2020-06-16 09:00:00 16.9 0 Calma 4 Noroeste 0.2 -- -- 96
2020-06-16 08:00:00 17 0 Calma 5 Sudeste 0.2 -- -- 94
2020-06-16 07:00:00 16.9 2 Norte 4 Noroeste 0 -- -- 87
2020-06-16 06:00:00 16.8 0 Calma 4 Sudoeste 0 -- -- 87
2020-06-16 05:00:00 17 0 Calma 5 Noroeste 0 -- -- 86
2020-06-16 04:00:00 17.5 0 Calma 4 Sudoeste 0 -- -- 91
2020-06-16 03:00:00 17.5 2 Sudeste 5 Sudeste 0 -- -- 90
2020-06-16 02:00:00 17.9 0 Calma 3 Sur 0 -- -- 88
2020-06-16 01:00:00 18.2 0 Calma 4 Nordeste 0 -- -- 84
2020-06-16 00:00:00 18.5 0 Calma 4 Noroeste 0 -- -- 83
2020-06-15 23:00:00 19.6 0 Calma 7 Sur 0 -- -- 81
2020-06-15 22:00:00 20.6 3 Sudeste 10 Oeste 0 -- -- 77
2020-06-15 21:00:00 21.2 5 Sudoeste 12 Sudoeste 0 -- -- 71
2020-06-15 20:00:00 21.7 0 Calma 10 Noroeste 0 -- -- 66
2020-06-15 19:00:00 21.6 6 Norte 18 Nordeste 0 -- -- 71
2020-06-15 18:00:00 22.9 4 Norte 12 Norte 0 -- -- 66
2020-06-15 17:00:00 22.4 6 Norte 19 Nordeste 0 -- -- 68
2020-06-15 16:00:00 23.3 10 Norte 23 Norte 0 -- -- 60
2020-06-15 15:00:00 24.4 7 Norte 22 Norte 0 -- -- 58
2020-06-15 14:00:00 26.8 5 Este 21 Sur 0 -- -- 51
2020-06-15 13:00:00 26.2 9 Sudeste 19 Sudeste 0 -- -- 50
2020-06-15 12:00:00 24.7 7 Sur 22 Sur 0 -- -- 54
2020-06-15 11:00:00 23.2 7 Sur 15 Sudoeste 0 -- -- 59
2020-06-15 10:00:00 20.6 2 Noroeste 5 Nordeste 0 -- -- 69
2020-06-15 09:00:00 18.1 2 Noroeste 5 Oeste 0 -- -- 85
2020-06-15 08:00:00 15.6 0 Calma 4 Oeste 0 -- -- 100
2020-06-15 07:00:00 14.9 0 Calma 3 Oeste 0 -- -- 100
2020-06-15 06:00:00 15.2 0 Calma 2 Sudoeste 0 -- -- 100
2020-06-15 05:00:00 15.5 0 Calma 4 Norte 0 -- -- 100
2020-06-15 04:00:00 15.8 0 Calma 4 Noroeste 0 -- -- 100
2020-06-15 03:00:00 16.2 0 Calma 4 Norte 0 -- -- 100
2020-06-15 02:00:00 16.6 0 Calma 4 Norte 0 -- -- 100
2020-06-15 01:00:00 17.2 0 Calma 6 Noroeste 0 -- -- 100
2020-06-15 00:00:00 17.7 2 Noroeste 5 Norte 0 -- -- 99
2020-06-14 23:00:00 18.7 0 Calma 5 Nordeste 0 -- -- 98
2020-06-14 22:00:00 19.1 0 Calma 4 Sur 0 -- -- 95
2020-06-14 21:00:00 19.7 0 Calma 7 Sudoeste 0 -- -- 92
2020-06-14 20:00:00 20.2 3 Sudoeste 9 Sur 0.2 -- -- 91
2020-06-14 19:00:00 20.9 3 Nordeste 17 Sur 1.6 -- -- 85
2020-06-14 18:00:00 23.1 6 Sudeste 26 Sur 0 -- -- 66
2020-06-14 17:00:00 23.7 9 Sur 27 Sudeste 0 -- -- 62
2020-06-14 16:00:00 23.2 9 Sur 27 Sudeste 0 -- -- 62
2020-06-14 15:00:00 24.5 12 Sur 27 Sudeste 0 -- -- 55
2020-06-14 14:00:00 24.9 10 Sur 26 Sur 0 -- -- 48
2020-06-14 13:00:00 25.9 9 Sur 23 Sudeste 0 -- -- 43
2020-06-14 12:00:00 24.9 10 Sur 22 Sudeste 0 -- -- 44
2020-06-14 11:00:00 23.4 8 Sur 17 Sudeste 0 -- -- 49
2020-06-14 10:00:00 20.6 4 Sudeste 8 Este 0 -- -- 64
2020-06-14 09:00:00 17.2 2 Sudoeste 6 Sudoeste 0 -- -- 73
2020-06-14 08:00:00 14.2 0 Calma 5 Nordeste 0 -- -- 89
2020-06-14 07:00:00 13.1 0 Calma 3 Sudoeste 0 -- -- 94
2020-06-14 06:00:00 13.5 0 Calma 6 Noroeste 0 -- -- 91
2020-06-14 05:00:00 14 0 Calma 5 Este 0 -- -- 89
2020-06-14 04:00:00 14.6 2 Nordeste 4 Nordeste 0 -- -- 87
2020-06-14 03:00:00 14.9 0 Calma 3 Nordeste 0 -- -- 86
2020-06-14 02:00:00 15.5 0 Calma 3 Noroeste 0 -- -- 83
2020-06-14 01:00:00 16.4 0 Calma 4 Noroeste 0 -- -- 79
2020-06-14 00:00:00 17.7 0 Calma 7 Norte 0 -- -- 72
2020-06-13 23:00:00 18.8 3 Norte 13 Nordeste 0 -- -- 62
2020-06-13 22:00:00 18.8 4 Nordeste 17 Nordeste 0 -- -- 63
2020-06-13 21:00:00 20.2 7 Norte 21 Norte 0 -- -- 56
2020-06-13 20:00:00 21.7 7 Norte 19 Norte 0 -- -- 53
2020-06-13 19:00:00 22.5 5 Norte 24 Noroeste 0 -- -- 56
2020-06-13 18:00:00 23 8 Norte 18 Norte 0 -- -- 53
2020-06-13 17:00:00 22.2 6 Nordeste 19 Norte 0 -- -- 56
2020-06-13 16:00:00 20.7 11 Norte 38 Norte 0 -- -- 62
2020-06-13 15:00:00 27.4 6 Sudeste 20 Sudoeste 0 -- -- 41
2020-06-13 14:00:00 26.4 7 Sur 18 Sur 0 -- -- 44
2020-06-13 13:00:00 25.1 6 Sudeste 15 Sudeste 0 -- -- 47
2020-06-13 12:00:00 22.8 3 Sudoeste 9 Sudeste 0 -- -- 57
2020-06-13 11:00:00 18.8 3 Nordeste 8 Sudoeste 0 -- -- 74
2020-06-13 10:00:00 15.5 0 Calma 9 Este 0.8 -- -- 95
2020-06-13 09:00:00 14.6 0 Calma 6 Norte 0 -- -- 86
2020-06-13 08:00:00 14.1 0 Calma 4 Noroeste 0 -- -- 86
2020-06-13 07:00:00 13.4 0 Calma 4 Noroeste 0 -- -- 87
2020-06-13 06:00:00 13.2 0 Calma 4 Noroeste 0 -- -- 87
2020-06-13 05:00:00 14.1 0 Calma 2 Noroeste 0 -- -- 87
2020-06-13 04:00:00 14.3 0 Calma 3 Sur 0 -- -- 88
2020-06-13 03:00:00 15.3 0 Calma 4 Sudeste 0 -- -- 83
2020-06-13 02:00:00 16.6 0 Calma 7 Sudeste 0 -- -- 79
2020-06-13 01:00:00 17.8 5 Sudeste 10 Sur 0 -- -- 77
2020-06-13 00:00:00 17.9 4 Sudeste 13 Sur 0 -- -- 75
2020-06-12 23:00:00 18.8 6 Sudeste 18 Sur 0 -- -- 68
2020-06-12 22:00:00 20.2 6 Sudeste 18 Sudeste 0 -- -- 62
2020-06-12 21:00:00 21.9 8 Sur 22 Sudoeste 0 -- -- 52
2020-06-12 20:00:00 23.2 10 Sur 34 Sur 0 -- -- 49
2020-06-12 19:00:00 24.1 11 Sur 35 Sur 0 -- -- 50
2020-06-12 18:00:00 24.8 14 Sur 39 Sur 0 -- -- 46
2020-06-12 17:00:00 25.9 15 Sur 38 Sur 0 -- -- 42
2020-06-12 16:00:00 27.3 13 Sur 38 Sudeste 0 -- -- 40
2020-06-12 15:00:00 27 18 Sudoeste 35 Sudoeste 0 -- -- 33
2020-06-12 14:00:00 26.7 11 Sur 28 Sudoeste 0 -- -- 36
2020-06-12 13:00:00 26.7 8 Sudoeste 26 Sur 0 -- -- 36
2020-06-12 12:00:00 25 6 Sudoeste 16 Sur 0 -- -- 41
2020-06-12 11:00:00 24.4 5 Sur 15 Sur 0 -- -- 63
2020-06-12 10:00:00 22.1 5 Sur 11 Sudoeste 0 -- -- 79
2020-06-12 09:00:00 19.6 4 Sudeste 8 Sur 0 -- -- 98
2020-06-12 08:00:00 18.1 0 Calma 4 Sur 0 -- -- 100
2020-06-12 07:00:00 17.5 0 Calma 5 Sudeste 0 -- -- 100
2020-06-12 06:00:00 17.5 0 Calma 6 Sudoeste 0 -- -- 100
2020-06-12 05:00:00 18 0 Calma 4 Este 0 -- -- 100
2020-06-12 04:00:00 18.1 0 Calma 5 Oeste 0 -- -- 100
2020-06-12 03:00:00 18.5 2 Sur 8 Sudeste 0 -- -- 96
2020-06-12 02:00:00 19.1 4 Sudeste 8 Sur 0 -- -- 94
2020-06-12 01:00:00 19.2 5 Sur 10 Sudeste 0 -- -- 94
2020-06-12 00:00:00 19.1 4 Sudeste 11 Sudeste 0 -- -- 94
2020-06-11 23:00:00 19.5 6 Sudeste 13 Sur 0 -- -- 92
2020-06-11 22:00:00 20 6 Sudeste 14 Sudeste 0 -- -- 91
2020-06-11 21:00:00 20.4 6 Sudeste 16 Sudeste 0 -- -- 87
2020-06-11 20:00:00 20.9 6 Sudeste 23 Sudeste 0 -- -- 84
2020-06-11 19:00:00 21.8 8 Sur 27 Sudeste 0 -- -- 74
2020-06-11 18:00:00 22.5 13 Sur 27 Sudeste 0 -- -- 71
2020-06-11 17:00:00 22 13 Sudeste 32 Sudeste 0 -- -- 68
2020-06-11 16:00:00 22.9 14 Sur 32 Sudeste 0 -- -- 64
2020-06-11 15:00:00 24 13 Sur 26 Sudeste 0 -- -- 58
2020-06-11 14:00:00 22.9 9 Sur 29 Sur 0 -- -- 63
2020-06-11 13:00:00 21.7 10 Sur 27 Sur 0 -- -- 67
2020-06-11 12:00:00 20.2 9 Sur 21 Sudeste 0 -- -- 72
2020-06-11 11:00:00 17.3 6 Sur 12 Sudeste 0 -- -- 83
2020-06-11 10:00:00 15.4 4 Sur 9 Sudeste 0 -- -- 92
2020-06-11 09:00:00 14.3 3 Sudeste 9 Sudeste 0 -- -- 99
2020-06-11 08:00:00 13.6 3 Sur 8 Sudeste 0 -- -- 100
2020-06-11 07:00:00 13.5 0 Calma 5 Sur 0 -- -- 100
2020-06-11 06:00:00 13.2 0 Calma 2 Noroeste 0 -- -- 100
2020-06-11 05:00:00 13.3 0 Calma 6 Noroeste 0 -- -- 100
2020-06-11 04:00:00 13.9 0 Calma 6 Noroeste 0 -- -- 100
2020-06-11 03:00:00 14.2 0 Calma 6 Nordeste 0 -- -- 100
2020-06-11 02:00:00 14.2 0 Calma 5 Noroeste 0.2 -- -- 100
2020-06-11 01:00:00 14.5 2 Noroeste 8 Norte 0.6 -- -- 98
2020-06-11 00:00:00 15 2 Noroeste 6 Noroeste 0.4 -- -- 95
2020-06-10 23:00:00 15.9 0 Calma 9 Norte 0.6 -- -- 93
2020-06-10 22:00:00 16.7 0 Calma 7 Este 0 -- -- 90
2020-06-10 21:00:00 17.1 0 Calma 6 Sur 0 -- -- 79
2020-06-10 20:00:00 17.5 4 Sudoeste 12 Sudoeste 0 -- -- 76
2020-06-10 19:00:00 17.8 5 Sudoeste 12 Sur 0 -- -- 74
2020-06-10 18:00:00 17.6 9 Sudoeste 14 Sudoeste 0 -- -- 87
2020-06-10 17:00:00 17.1 4 Sudoeste 14 Sudeste 0.2 -- -- 96
2020-06-10 16:00:00 15.3 6 Sudeste 26 Este 10.4 -- -- 94
2020-06-10 15:00:00 18.6 6 Este 21 Sudeste 0 -- -- 67
2020-06-10 14:00:00 22.7 9 Sudeste 23 Sudeste 0 -- -- 54
2020-06-10 13:00:00 23.2 6 Sur 19 Sudeste 0 -- -- 52
2020-06-10 12:00:00 21.8 7 Sur 15 Sur 0 -- -- 53
2020-06-10 11:00:00 20.1 6 Sur 15 Sudeste 0 -- -- 60
2020-06-10 10:00:00 17.8 4 Sur 9 Sur 0 -- -- 68
2020-06-10 09:00:00 14.1 2 Sudeste 6 Este 0 -- -- 85
2020-06-10 08:00:00 11.9 0 Calma 4 Sur 0 -- -- 98
2020-06-10 07:00:00 11.2 2 Sudeste 7 Sudoeste 0 -- -- 100
2020-06-10 06:00:00 11.3 0 Calma 4 Nordeste 0 -- -- 99
2020-06-10 05:00:00 11.5 0 Calma 4 Norte 0 -- -- 96
2020-06-10 04:00:00 12 0 Calma 5 Nordeste 0 -- -- 97
2020-06-10 03:00:00 12.5 0 Calma 3 Norte 0 -- -- 97
2020-06-10 02:00:00 13.3 0 Calma 3 Norte 0 -- -- 97
2020-06-10 01:00:00 14 0 Calma 5 Sudeste 0 -- -- 94
2020-06-10 00:00:00 14.6 0 Calma 4 Sudeste 0 -- -- 93